Time;durP1;ratioP1;P1;durP2;ratioP2;P2;SDS_P1;SDS_P2;PMS_P1;PMS_P2;Temp;Humidity;BMP_temperature;BMP_pressure;BME280_temperature;BME280_humidity;BME280_pressure;Samples;Min_cycle;Max_cycle;Signal;HPM_P1;HPM_P2
2023/05/23 00:01:36;;;;;;;15.75;13.32;;;22.50;67.80;;;;;;4893353;28;90331;-85
2023/05/23 00:04:05;;;;;;;15.40;13.75;;;22.50;67.80;;;;;;4894817;28;87929;-88
2023/05/23 00:06:33;;;;;;;15.95;14.15;;;22.50;67.80;;;;;;4907799;28;93774;-83
2023/05/23 00:08:58;;;;;;;14.98;13.02;;;22.40;67.80;;;;;;4892585;28;87452;-83
2023/05/23 00:11:26;;;;;;;15.18;13.32;;;22.50;67.90;;;;;;4892698;28;89013;-87
2023/05/23 00:13:56;;;;;;;17.23;13.60;;;22.50;68.00;;;;;;4891890;28;87640;-85
2023/05/23 00:16:21;;;;;;;15.30;13.70;;;22.40;67.90;;;;;;4892562;28;89902;-88
2023/05/23 00:18:49;;;;;;;16.17;13.70;;;22.40;67.80;;;;;;4893032;28;90506;-85
2023/05/23 00:21:15;;;;;;;15.27;13.35;;;22.40;67.80;;;;;;4893542;28;88563;-90
2023/05/23 00:23:41;;;;;;;15.23;13.63;;;22.40;67.80;;;;;;4895599;28;87744;-87
2023/05/23 00:26:10;;;;;;;16.08;13.90;;;22.40;68.00;;;;;;4908288;28;87885;-84
2023/05/23 00:28:37;;;;;;;15.75;12.15;;;22.40;67.80;;;;;;4894172;28;88998;-88
2023/05/23 00:31:02;;;;;;;16.40;13.77;;;22.40;68.00;;;;;;4893840;28;87715;-88
2023/05/23 00:33:28;;;;;;;14.43;11.77;;;22.40;68.00;;;;;;4891757;28;87854;-84
2023/05/23 00:35:54;;;;;;;15.98;13.82;;;22.40;67.80;;;;;;4893767;28;86835;-89
2023/05/23 00:38:20;;;;;;;16.75;13.60;;;22.40;67.90;;;;;;4892211;28;90345;-87
2023/05/23 00:40:47;;;;;;;14.82;13.05;;;22.40;67.90;;;;;;4893987;28;88454;-85
2023/05/23 00:43:12;;;;;;;16.05;13.20;;;22.40;67.70;;;;;;4892304;28;88786;-86
2023/05/23 00:45:38;;;;;;;13.02;11.70;;;22.40;67.70;;;;;;4892619;28;89382;-85
2023/05/23 00:48:06;;;;;;;14.32;12.82;;;22.40;67.80;;;;;;4891849;28;88577;-89
2023/05/23 00:50:32;;;;;;;14.02;12.52;;;22.30;67.70;;;;;;4893802;28;87942;-86
2023/05/23 00:53:00;;;;;;;13.52;12.13;;;22.40;67.80;;;;;;4895612;28;87106;-84
2023/05/23 00:55:26;;;;;;;16.48;14.07;;;22.30;67.90;;;;;;4895884;28;87748;-92
2023/05/23 00:57:55;;;;;;;15.15;12.55;;;22.30;67.90;;;;;;4898059;28;88697;-85
2023/05/23 01:00:23;;;;;;;14.10;12.48;;;22.30;67.80;;;;;;4895312;28;89041;-84
2023/05/23 01:02:52;;;;;;;14.27;12.75;;;22.30;68.20;;;;;;4893474;28;87136;-85
2023/05/23 01:05:18;;;;;;;14.68;12.77;;;22.30;67.80;;;;;;4894161;28;87428;-88
2023/05/23 01:07:45;;;;;;;14.73;13.07;;;22.30;67.90;;;;;;4892135;28;88710;-85
2023/05/23 01:10:13;;;;;;;16.50;13.70;;;22.30;67.90;;;;;;4891818;28;89402;-86
2023/05/23 01:12:45;;;;;;;14.70;13.13;;;22.30;67.90;;;;;;4891845;28;87270;-91
2023/05/23 01:15:14;;;;;;;14.85;12.50;;;22.30;67.80;;;;;;4892070;28;88171;-90
2023/05/23 01:17:46;;;;;;;;;;;22.30;68.00;;;;;;4891851;28;87211;-89
2023/05/23 01:20:18;;;;;;;16.42;12.45;;;22.20;67.70;;;;;;4907416;28;89956;-84
2023/05/23 01:22:52;;;;;;;14.95;13.18;;;22.20;67.80;;;;;;4891599;28;87683;-87
2023/05/23 01:25:42;;;;;;;15.23;13.05;;;22.30;67.90;;;;;;4889122;28;89959;-83
2023/05/23 01:28:14;;;;;;;12.93;11.52;;;22.20;67.80;;;;;;4889798;28;87711;-89
2023/05/23 01:30:43;;;;;;;15.10;12.80;;;22.20;68.00;;;;;;4891737;28;87625;-84
2023/05/23 01:33:10;;;;;;;;;;;22.20;67.80;;;;;;4890309;28;88648;-83
2023/05/23 01:35:37;;;;;;;13.68;11.73;;;22.20;68.00;;;;;;4893313;28;87816;-85
2023/05/23 01:38:02;;;;;;;13.93;12.32;;;22.20;67.80;;;;;;4890889;28;90452;-89
2023/05/23 01:40:28;;;;;;;14.07;12.60;;;22.20;67.90;;;;;;4889031;28;90403;-85
2023/05/23 01:42:56;;;;;;;12.13;10.80;;;22.20;67.80;;;;;;4891073;28;87677;-88
2023/05/23 01:45:25;;;;;;;14.07;12.57;;;22.20;67.80;;;;;;4889813;28;88036;-85
2023/05/23 01:47:51;;;;;;;;;;;22.20;67.80;;;;;;4890736;28;88395;-86
2023/05/23 01:50:17;;;;;;;14.73;12.82;;;22.20;67.80;;;;;;4892581;28;87295;-88
2023/05/23 01:52:44;;;;;;;13.10;11.80;;;22.20;68.00;;;;;;4887784;28;88020;-85
2023/05/23 01:55:13;;;;;;;14.45;11.98;;;22.20;67.90;;;;;;4889307;28;87186;-91
2023/05/23 01:57:39;;;;;;;12.23;10.98;;;22.20;67.90;;;;;;4890272;28;89546;-87
2023/05/23 02:00:11;;;;;;;14.02;11.75;;;22.20;67.90;;;;;;4890515;28;88539;-89
2023/05/23 02:02:36;;;;;;;14.02;11.60;;;22.20;68.00;;;;;;4887740;28;88064;-89
2023/05/23 02:05:03;;;;;;;14.43;12.20;;;22.20;67.90;;;;;;4887278;28;89803;-86
2023/05/23 02:07:28;;;;;;;13.05;11.25;;;22.20;68.00;;;;;;4890297;28;87564;-84
2023/05/23 02:09:55;;;;;;;14.27;11.77;;;22.20;67.90;;;;;;4891126;28;88688;-89
2023/05/23 02:12:20;;;;;;;13.90;12.40;;;22.20;68.00;;;;;;4889291;28;87916;-87
2023/05/23 02:14:46;;;;;;;13.27;11.98;;;22.20;67.90;;;;;;4890246;28;87178;-88
2023/05/23 02:17:13;;;;;;;13.43;12.02;;;22.20;68.00;;;;;;4889513;28;87871;-91
2023/05/23 02:19:39;;;;;;;13.27;11.65;;;22.20;67.90;;;;;;4888629;28;87539;-87
2023/05/23 02:22:05;;;;;;;12.55;11.07;;;22.10;68.00;;;;;;4890022;28;88582;-84
2023/05/23 02:24:30;;;;;;;13.95;11.35;;;22.10;67.90;;;;;;4894563;28;87690;-84
2023/05/23 02:26:56;;;;;;;15.40;12.45;;;22.10;68.00;;;;;;4889265;28;91069;-85
2023/05/23 02:29:22;;;;;;;11.88;10.63;;;22.10;68.00;;;;;;4890855;28;88075;-87
2023/05/23 02:31:47;;;;;;;13.40;11.85;;;22.10;68.00;;;;;;4889417;28;87679;-86
2023/05/23 02:34:13;;;;;;;13.18;11.70;;;22.10;68.00;;;;;;4889462;28;87722;-93
2023/05/23 02:36:39;;;;;;;12.00;10.80;;;22.10;67.90;;;;;;4890853;28;87811;-87
2023/05/23 02:39:05;;;;;;;13.18;11.88;;;22.10;68.00;;;;;;4889509;28;87342;-85
2023/05/23 02:41:31;;;;;;;13.88;12.45;;;22.10;68.00;;;;;;4888353;28;87544;-88
2023/05/23 02:43:57;;;;;;;13.35;11.88;;;22.10;67.80;;;;;;4905130;28;88164;-93
2023/05/23 02:46:23;;;;;;;13.15;11.30;;;22.10;68.00;;;;;;4889008;28;89201;-92
2023/05/23 02:48:49;;;;;;;12.75;11.15;;;22.10;68.00;;;;;;4888249;28;91250;-90
2023/05/23 02:51:15;;;;;;;11.35;10.18;;;22.10;68.00;;;;;;4888790;28;87578;-85
2023/05/23 02:53:40;;;;;;;12.48;11.10;;;22.10;67.90;;;;;;4890760;28;87480;-92
2023/05/23 02:56:07;;;;;;;12.05;10.65;;;22.10;68.00;;;;;;4888978;28;88858;-86
2023/05/23 02:58:34;;;;;;;13.60;12.20;;;22.10;68.50;;;;;;4887719;28;89589;-85
2023/05/23 03:01:03;;;;;;;12.35;10.63;;;22.00;68.00;;;;;;4889054;28;87860;-93
2023/05/23 03:03:32;;;;;;;12.95;11.05;;;22.10;68.00;;;;;;4889933;28;86569;-87
2023/05/23 03:05:57;;;;;;;13.48;12.13;;;22.10;67.90;;;;;;4889158;28;88006;-89
2023/05/23 03:08:24;;;;;;;11.50;10.30;;;22.10;67.80;;;;;;4888630;28;89966;-88
2023/05/23 03:10:50;;;;;;;13.93;11.27;;;22.10;67.90;;;;;;4888514;28;89109;-87
2023/05/23 03:13:16;;;;;;;12.27;10.98;;;22.10;67.90;;;;;;4888783;28;88067;-86
2023/05/23 03:15:41;;;;;;;12.18;10.77;;;22.10;67.70;;;;;;4889341;28;88306;-83
2023/05/23 03:18:07;;;;;;;12.95;11.60;;;22.10;67.80;;;;;;4889034;28;87732;-85
2023/05/23 03:20:33;;;;;;;11.75;10.50;;;22.10;67.90;;;;;;4887259;28;87592;-85
2023/05/23 03:22:58;;;;;;;13.65;11.88;;;22.10;68.00;;;;;;4888408;28;87998;-89
2023/05/23 03:25:24;;;;;;;11.07;9.98;;;22.00;67.80;;;;;;4891592;28;88503;-87
2023/05/23 03:27:50;;;;;;;11.65;10.45;;;22.10;68.00;;;;;;4891553;28;89628;-87
2023/05/23 03:30:16;;;;;;;12.18;10.98;;;22.10;68.10;;;;;;4891751;28;87563;-91
2023/05/23 03:32:42;;;;;;;12.57;10.63;;;22.00;67.90;;;;;;4892730;28;87460;-90
2023/05/23 03:35:08;;;;;;;11.13;9.75;;;22.10;68.00;;;;;;4891386;28;89434;-89
2023/05/23 03:37:33;;;;;;;11.95;10.75;;;22.00;67.80;;;;;;4893074;28;87359;-92
2023/05/23 03:39:59;;;;;;;12.32;11.02;;;22.00;67.80;;;;;;4892309;28;88262;-87
2023/05/23 03:42:26;;;;;;;12.52;11.02;;;22.00;67.80;;;;;;4893214;28;87478;-92
2023/05/23 03:44:52;;;;;;;14.50;12.15;;;22.00;67.70;;;;;;4890396;28;88091;-91
2023/05/23 03:47:17;;;;;;;11.98;10.50;;;22.00;67.70;;;;;;4892809;28;87998;-85
2023/05/23 03:49:44;;;;;;;12.50;11.27;;;22.00;67.70;;;;;;4892769;28;87447;-85
2023/05/23 03:52:10;;;;;;;11.18;9.60;;;22.00;67.80;;;;;;4892549;28;90420;-89
2023/05/23 03:54:36;;;;;;;12.57;11.30;;;22.00;67.70;;;;;;4892528;28;88040;-89
2023/05/23 03:57:01;;;;;;;10.15;9.10;;;22.00;67.90;;;;;;4892550;28;87530;-91
2023/05/23 03:59:27;;;;;;;9.90;8.90;;;22.00;67.90;;;;;;4893479;28;88235;-84
2023/05/23 04:01:53;;;;;;;13.02;11.63;;;22.00;67.90;;;;;;4892796;28;87690;-91
2023/05/23 04:04:23;;;;;;;12.07;10.80;;;22.00;67.80;;;;;;4890007;28;90278;-87
2023/05/23 04:06:49;;;;;;;11.38;10.18;;;22.00;67.90;;;;;;4892642;28;88328;-90
2023/05/23 04:09:15;;;;;;;12.30;11.10;;;22.00;68.00;;;;;;4890395;28;87944;-84
2023/05/23 04:11:41;;;;;;;10.45;9.38;;;22.00;67.80;;;;;;4890187;28;87358;-84
2023/05/23 04:14:07;;;;;;;13.57;11.48;;;22.00;67.60;;;;;;4890715;28;89491;-88
2023/05/23 04:16:34;;;;;;;11.38;10.18;;;22.00;67.70;;;;;;4892561;28;87916;-91
2023/05/23 04:19:01;;;;;;;11.70;10.50;;;22.00;67.80;;;;;;4891862;28;87460;-91
2023/05/23 04:21:27;;;;;;;11.65;10.45;;;21.90;67.80;;;;;;4891643;28;87724;-90
2023/05/23 04:23:52;;;;;;;12.70;10.25;;;22.00;67.80;;;;;;4890920;28;88609;-90
2023/05/23 04:26:19;;;;;;;11.63;10.05;;;22.00;68.70;;;;;;4895005;28;88877;-85
2023/05/23 04:28:45;;;;;;;11.20;10.10;;;22.00;67.60;;;;;;4890854;28;87390;-89
2023/05/23 04:31:11;;;;;;;10.98;9.82;;;22.00;67.60;;;;;;4891470;28;87691;-90
2023/05/23 04:33:37;;;;;;;12.07;10.85;;;22.00;67.60;;;;;;4892507;28;87518;-84
2023/05/23 04:36:04;;;;;;;11.38;10.23;;;21.90;67.70;;;;;;4891644;28;87995;-84
2023/05/23 04:38:30;;;;;;;12.32;10.57;;;22.00;67.60;;;;;;4891802;28;88297;-92
2023/05/23 04:40:56;;;;;;;10.60;9.52;;;21.90;67.60;;;;;;4892282;28;87320;-85
2023/05/23 04:43:25;;;;;;;11.32;10.25;;;22.00;67.50;;;;;;4887853;28;87916;-84
2023/05/23 04:45:53;;;;;;;10.03;8.93;;;21.90;67.50;;;;;;4889670;28;91211;-90
2023/05/23 04:48:20;;;;;;;10.13;9.13;;;21.90;67.50;;;;;;4889884;28;88524;-88
2023/05/23 04:50:47;;;;;;;10.75;9.73;;;21.90;67.70;;;;;;4892207;28;87611;-87
2023/05/23 04:53:13;;;;;;;11.02;9.90;;;21.90;67.70;;;;;;4892052;28;87842;-84
2023/05/23 04:55:39;;;;;;;10.48;9.35;;;21.90;67.80;;;;;;4892387;28;88103;-88
2023/05/23 04:58:04;;;;;;;11.05;9.88;;;21.90;67.60;;;;;;4891758;28;87219;-82
2023/05/23 05:00:30;;;;;;;11.00;9.80;;;21.90;67.60;;;;;;4893737;28;87851;-86
2023/05/23 05:02:56;;;;;;;11.25;10.15;;;21.90;67.70;;;;;;4890992;28;89226;-87
2023/05/23 05:05:21;;;;;;;10.43;9.43;;;21.90;67.60;;;;;;4890863;28;88873;-91
2023/05/23 05:07:47;;;;;;;10.40;9.23;;;21.90;67.60;;;;;;4890830;28;87156;-90
2023/05/23 05:10:15;;;;;;;10.60;9.50;;;21.90;67.60;;;;;;4891984;28;88517;-89
2023/05/23 05:12:51;;;;;;;10.93;9.50;;;21.90;67.80;;;;;;4892697;28;89174;-89
2023/05/23 05:15:18;;;;;;;11.55;10.35;;;21.90;67.60;;;;;;4891913;28;88177;-91
2023/05/23 05:17:44;;;;;;;12.18;10.95;;;21.90;67.60;;;;;;4892077;28;87592;-84
2023/05/23 05:20:10;;;;;;;10.73;9.63;;;21.90;67.70;;;;;;4890576;28;89643;-87
2023/05/23 05:22:39;;;;;;;10.75;9.65;;;21.90;67.80;;;;;;4891544;28;87798;-88
2023/05/23 05:25:06;;;;;;;10.10;9.07;;;21.90;67.70;;;;;;4890188;28;88666;-83
2023/05/23 05:27:33;;;;;;;10.32;9.32;;;21.90;67.50;;;;;;4896132;28;87443;-91
2023/05/23 05:30:03;;;;;;;11.43;10.15;;;21.90;67.50;;;;;;4890685;28;89746;-90
2023/05/23 05:32:35;;;;;;;11.13;10.00;;;21.90;67.80;;;;;;4888961;28;90363;-85
2023/05/23 05:35:02;;;;;;;11.70;10.50;;;21.90;67.70;;;;;;4888438;28;87851;-93
2023/05/23 05:37:28;;;;;;;10.88;9.82;;;21.90;67.60;;;;;;4890578;28;88173;-88
2023/05/23 05:39:54;;;;;;;9.98;8.98;;;21.90;67.60;;;;;;4890934;28;88679;-89
2023/05/23 05:42:21;;;;;;;10.85;9.75;;;21.90;67.80;;;;;;4887867;28;89563;-86
2023/05/23 05:44:48;;;;;;;9.73;8.73;;;21.90;67.60;;;;;;4888082;28;88652;-87
2023/05/23 05:47:14;;;;;;;9.73;8.73;;;21.90;67.50;;;;;;4905789;28;87195;-87
2023/05/23 05:49:40;;;;;;;10.18;9.18;;;21.90;67.70;;;;;;4889492;28;89226;-84
2023/05/23 05:52:07;;;;;;;10.68;9.57;;;21.90;67.60;;;;;;4889789;28;89060;-89
2023/05/23 05:54:32;;;;;;;10.13;9.13;;;21.90;67.70;;;;;;4890197;28;88444;-90
2023/05/23 05:56:58;;;;;;;10.18;9.18;;;21.90;67.80;;;;;;4890991;28;87747;-84
2023/05/23 05:59:24;;;;;;;10.63;9.52;;;21.90;67.60;;;;;;4890911;28;87310;-91
2023/05/23 06:01:50;;;;;;;10.68;9.57;;;21.90;67.70;;;;;;4890662;28;88440;-84
2023/05/23 06:04:16;;;;;;;10.27;9.27;;;21.90;67.70;;;;;;4889688;28;89820;-89
2023/05/23 06:06:42;;;;;;;9.68;8.70;;;21.90;67.60;;;;;;4891595;28;88698;-84
2023/05/23 06:09:09;;;;;;;10.77;9.45;;;21.90;67.70;;;;;;4888782;28;88083;-85
2023/05/23 06:11:39;;;;;;;11.00;9.35;;;21.90;67.10;;;;;;4898031;28;87303;-84
2023/05/23 06:14:09;;;;;;;10.93;8.40;;;21.90;67.10;;;;;;4900693;28;87867;-84
2023/05/23 06:16:36;;;;;;;8.65;7.22;;;21.90;66.20;;;;;;4899840;28;88119;-84
2023/05/23 06:19:02;;;;;;;9.23;7.45;;;22.20;64.20;;;;;;4905691;28;88708;-85
2023/05/23 06:21:28;;;;;;;8.80;7.90;;;22.30;63.90;;;;;;4900413;28;87797;-90
2023/05/23 06:23:54;;;;;;;9.73;8.50;;;22.30;65.00;;;;;;4892238;28;87976;-85
2023/05/23 06:26:20;;;;;;;12.55;8.68;;;22.20;65.30;;;;;;4888752;28;88961;-86
2023/05/23 06:28:45;;;;;;;14.07;9.43;;;22.20;65.50;;;;;;4895012;28;87466;-86
2023/05/23 06:31:11;;;;;;;12.32;9.38;;;22.10;67.00;;;;;;4889637;28;88750;-91
2023/05/23 06:33:37;;;;;;;13.73;9.75;;;22.10;65.90;;;;;;4890910;28;87966;-85
2023/05/23 06:36:03;;;;;;;13.63;9.07;;;22.10;65.60;;;;;;4891167;28;87922;-88
2023/05/23 06:38:32;;;;;;;16.17;10.70;;;22.20;65.20;;;;;;4891145;28;88318;-83
2023/05/23 06:40:58;;;;;;;11.93;9.55;;;22.10;65.50;;;;;;4888664;28;87705;-86
2023/05/23 06:43:24;;;;;;;13.10;9.63;;;22.10;65.60;;;;;;4887432;28;87215;-87
2023/05/23 06:45:50;;;;;;;14.38;10.15;;;22.00;65.20;;;;;;4892153;28;87568;-87
2023/05/23 06:48:15;;;;;;;12.85;9.88;;;22.10;66.60;;;;;;4889856;28;87920;-87
2023/05/23 06:50:41;;;;;;;13.75;9.85;;;22.00;66.90;;;;;;4889716;28;89088;-88
2023/05/23 06:53:06;;;;;;;15.52;11.02;;;22.00;67.40;;;;;;4891388;28;88109;-93
2023/05/23 06:55:35;;;;;;;16.23;11.60;;;22.00;67.60;;;;;;4890178;28;88880;-85
2023/05/23 06:58:03;;;;;;;16.17;9.93;;;21.90;67.80;;;;;;4887461;28;87857;-85
2023/05/23 07:00:30;;;;;;;12.30;10.20;;;21.90;67.80;;;;;;4888209;28;87077;-91
2023/05/23 07:02:59;;;;;;;14.40;9.48;;;22.10;67.40;;;;;;4887329;28;89007;-85
2023/05/23 07:05:28;;;;;;;16.13;10.23;;;22.10;67.40;;;;;;4886935;28;88002;-88
2023/05/23 07:07:54;;;;;;;14.82;11.50;;;22.00;67.90;;;;;;4888943;28;88941;-85
2023/05/23 07:10:21;;;;;;;14.05;10.80;;;21.90;67.60;;;;;;4892050;28;88383;-86
2023/05/23 07:12:47;;;;;;;14.40;10.75;;;21.90;67.60;;;;;;4893595;28;90479;-85
2023/05/23 07:15:13;;;;;;;16.85;11.27;;;21.90;67.70;;;;;;4892427;28;88783;-84
2023/05/23 07:17:39;;;;;;;12.13;10.52;;;21.90;67.90;;;;;;4890964;28;89577;-85
2023/05/23 07:20:06;;;;;;;11.65;9.45;;;21.90;67.80;;;;;;4891798;28;89769;-84
2023/05/23 07:22:31;;;;;;;13.70;9.85;;;21.90;67.80;;;;;;4893564;28;90346;-85
2023/05/23 07:24:57;;;;;;;14.38;10.80;;;21.90;67.90;;;;;;4892759;28;88030;-83
2023/05/23 07:27:23;;;;;;;11.77;9.57;;;21.90;67.70;;;;;;4894570;28;87382;-83
2023/05/23 07:29:49;;;;;;;14.05;10.68;;;21.90;67.50;;;;;;4893307;28;89033;-85
2023/05/23 07:32:15;;;;;;;13.05;10.30;;;22.00;67.00;;;;;;4907495;28;87278;-89
2023/05/23 07:34:40;;;;;;;13.13;9.45;;;22.10;65.30;;;;;;4896072;28;87371;-88
2023/05/23 07:37:06;;;;;;;12.80;9.10;;;22.10;66.30;;;;;;4900793;28;89316;-90
2023/05/23 07:39:32;;;;;;;46.83;21.23;;;22.20;66.40;;;;;;4904134;28;89617;-90
2023/05/23 07:41:58;;;;;;;177.02;49.40;;;22.10;66.50;;;;;;4899969;28;90612;-87
2023/05/23 07:44:23;;;;;;;21.08;12.32;;;22.00;65.60;;;;;;4903704;28;87851;-88
2023/05/23 07:46:49;;;;;;;23.08;12.80;;;21.90;66.90;;;;;;4902836;28;87774;-85
2023/05/23 07:49:15;;;;;;;25.50;13.82;;;21.90;67.00;;;;;;4904737;28;88141;-89
2023/05/23 07:51:40;;;;;;;34.88;16.63;;;21.90;67.20;;;;;;4904701;28;88286;-86
2023/05/23 07:54:06;;;;;;;38.78;18.17;;;21.90;67.20;;;;;;4904828;28;87773;-88
2023/05/23 07:56:32;;;;;;;41.20;16.85;;;21.90;67.20;;;;;;4903613;28;88517;-87
2023/05/23 07:58:57;;;;;;;40.13;18.80;;;21.90;67.20;;;;;;4902664;28;87707;-89
2023/05/23 08:01:24;;;;;;;47.40;20.83;;;21.90;67.00;;;;;;4902848;28;88478;-91
2023/05/23 08:03:50;;;;;;;47.65;22.17;;;21.90;67.00;;;;;;4905182;28;88957;-87
2023/05/23 08:06:15;;;;;;;59.38;23.50;;;21.90;67.10;;;;;;4904778;28;88014;-91
2023/05/23 08:08:42;;;;;;;61.90;23.67;;;21.80;67.00;;;;;;4903216;28;88088;-90
2023/05/23 08:11:08;;;;;;;53.58;24.05;;;21.80;67.10;;;;;;4902224;28;88143;-88
2023/05/23 08:13:34;;;;;;;54.13;21.83;;;21.80;67.00;;;;;;4905417;28;87456;-88
2023/05/23 08:16:00;;;;;;;54.25;21.35;;;21.80;66.90;;;;;;4908992;28;87632;-91
2023/05/23 08:18:26;;;;;;;61.35;24.40;;;21.80;67.10;;;;;;4907900;28;87762;-86
2023/05/23 08:20:52;;;;;;;49.45;22.20;;;21.80;66.90;;;;;;4909309;28;87294;-89
2023/05/23 08:23:18;;;;;;;52.42;23.00;;;21.80;67.10;;;;;;4902313;28;86936;-86
2023/05/23 08:25:44;;;;;;;51.38;22.10;;;21.80;66.90;;;;;;4903059;28;87594;-92
2023/05/23 08:28:09;;;;;;;52.28;23.15;;;21.80;67.00;;;;;;4894820;28;90456;-89
2023/05/23 08:30:35;;;;;;;47.90;21.65;;;21.80;66.90;;;;;;4904993;28;88862;-88
2023/05/23 08:33:03;;;;;;;46.28;21.45;;;21.80;67.10;;;;;;4899106;28;87053;-88
2023/05/23 08:35:33;;;;;;;54.65;25.05;;;21.80;66.90;;;;;;4903712;28;88247;-91
2023/05/23 08:38:00;;;;;;;51.53;23.88;;;21.80;66.90;;;;;;4899789;28;88065;-88
2023/05/23 08:40:29;;;;;;;53.67;22.55;;;21.80;66.90;;;;;;4894739;28;88609;-88
2023/05/23 08:42:55;;;;;;;46.05;21.10;;;21.80;66.90;;;;;;4892245;28;87443;-89
2023/05/23 08:45:21;;;;;;;46.28;20.92;;;21.80;66.90;;;;;;4891686;28;86972;-86
2023/05/23 08:47:47;;;;;;;50.03;21.50;;;21.80;66.90;;;;;;4891389;28;87907;-86
2023/05/23 08:50:17;;;;;;;49.42;22.25;;;21.80;66.90;;;;;;4890928;28;87958;-86
2023/05/23 08:52:52;;;;;;;48.70;23.17;;;21.80;66.90;;;;;;4891278;28;88917;-87
2023/05/23 08:55:18;;;;;;;40.08;19.33;;;21.80;66.90;;;;;;4891331;28;87912;-88
2023/05/23 08:57:44;;;;;;;47.40;20.95;;;21.80;66.90;;;;;;4891828;28;88066;-86
2023/05/23 09:00:13;;;;;;;46.40;22.02;;;21.80;66.50;;;;;;4892240;28;88159;-89
2023/05/23 09:02:43;;;;;;;;;;;21.90;66.40;;;;;;4905621;28;87682;-90
2023/05/23 09:05:09;;;;;;;44.92;20.70;;;21.80;66.50;;;;;;4892451;28;87430;-89
2023/05/23 09:07:36;;;;;;;37.83;19.77;;;21.80;66.30;;;;;;4891543;28;89007;-87
2023/05/23 09:10:06;;;;;;;37.70;19.35;;;21.80;66.30;;;;;;4892570;28;86875;-89
2023/05/23 09:12:35;;;;;;;39.42;20.50;;;21.80;66.50;;;;;;4905546;28;89998;-84
2023/05/23 09:15:00;;;;;;;47.88;21.30;;;21.80;66.40;;;;;;4890501;28;87692;-88
2023/05/23 09:17:26;;;;;;;49.42;22.55;;;21.80;66.50;;;;;;4889949;28;89566;-88
2023/05/23 09:19:52;;;;;;;45.67;21.65;;;21.80;66.50;;;;;;4890382;28;88757;-88
2023/05/23 09:22:27;;;;;;;43.03;21.63;;;21.80;66.30;;;;;;4889377;28;87689;-91
2023/05/23 09:24:54;;;;;;;46.47;21.45;;;21.80;66.40;;;;;;4889931;28;87826;-90
2023/05/23 09:27:20;;;;;;;47.65;20.60;;;21.80;66.40;;;;;;4889394;28;91325;-87
2023/05/23 09:29:48;;;;;;;42.33;18.42;;;21.80;66.50;;;;;;4892073;28;87362;-85
2023/05/23 09:32:18;;;;;;;41.10;18.43;;;21.90;66.50;;;;;;4891000;28;88137;-89
2023/05/23 09:35:03;;;;;;;41.40;19.58;;;21.80;66.30;;;;;;4890824;28;87509;-89
2023/05/23 09:37:32;;;;;;;35.58;18.10;;;21.90;66.30;;;;;;4890075;28;87757;-88
2023/05/23 09:40:00;;;;;;;38.95;19.52;;;21.90;66.20;;;;;;4889372;28;90130;-90
2023/05/23 09:42:33;;;;;;;36.53;16.92;;;21.90;66.10;;;;;;4889329;28;88707;-85
2023/05/23 09:44:59;;;;;;;44.55;19.30;;;21.90;66.40;;;;;;4887350;28;87784;-86
2023/05/23 09:47:26;;;;;;;35.35;16.35;;;21.90;65.80;;;;;;4889001;28;91045;-89
2023/05/23 09:49:51;;;;;;;34.08;17.40;;;22.00;63.30;;;;;;4887980;28;87420;-86
2023/05/23 09:52:19;;;;;;;34.88;17.83;;;22.00;63.90;;;;;;4887129;28;87771;-86
2023/05/23 09:54:46;;;;;;;36.88;17.95;;;22.00;64.50;;;;;;4887901;28;88635;-87
2023/05/23 09:57:14;;;;;;;34.83;16.92;;;22.00;65.10;;;;;;4889034;28;87524;-87
2023/05/23 09:59:41;;;;;;;33.22;17.23;;;21.90;65.30;;;;;;4888109;28;88137;-87
2023/05/23 10:02:10;;;;;;;27.08;14.63;;;22.00;65.20;;;;;;4886696;28;88061;-87
2023/05/23 10:04:36;;;;;;;;;;;22.00;65.50;;;;;;4887899;28;87319;-87
2023/05/23 10:07:13;;;;;;;34.85;16.58;;;22.00;65.30;;;;;;4889779;28;88998;-88
2023/05/23 10:09:44;;;;;;;30.30;16.38;;;22.00;65.20;;;;;;4887070;28;92000;-88
2023/05/23 10:12:30;;;;;;;34.78;16.83;;;21.90;65.30;;;;;;4902369;28;87921;-87
2023/05/23 10:15:02;;;;;;;28.70;15.32;;;22.00;65.20;;;;;;4903549;28;88227;-87
2023/05/23 10:18:16;;;;;;;36.85;16.95;;;22.00;65.30;;;;;;4889363;28;87882;-93
2023/05/23 10:20:47;;;;;;;35.33;17.02;;;22.10;65.30;;;;;;4865107;28;89841;-87
2023/05/23 10:23:15;;;;;;;33.67;16.17;;;22.10;65.20;;;;;;4865099;28;87094;-88
2023/05/23 10:25:43;;;;;;;35.40;14.98;;;22.10;65.20;;;;;;4871078;28;86912;-87
2023/05/23 10:28:09;;;;;;;36.63;16.67;;;22.10;64.60;;;;;;4888162;28;87924;-87
2023/05/23 10:30:35;;;;;;;36.28;15.00;;;22.10;65.10;;;;;;4889384;28;87609;-88
2023/05/23 10:33:03;;;;;;;34.63;15.77;;;22.20;65.20;;;;;;4883895;28;88305;-88
2023/05/23 10:35:46;;;;;;;28.70;14.97;;;22.20;65.40;;;;;;4886108;28;89755;-89
2023/05/23 10:38:30;;;;;;;27.25;14.45;;;22.20;64.60;;;;;;4887857;28;88349;-89
2023/05/23 10:41:22;;;;;;;29.92;14.07;;;22.30;64.50;;;;;;4887555;28;91111;-93
2023/05/23 10:44:11;;;;;;;28.42;13.98;;;22.20;65.10;;;;;;4886751;28;87961;-89
2023/05/23 10:47:03;;;;;;;28.75;13.07;;;22.10;64.90;;;;;;4902722;28;88576;-87
2023/05/23 10:49:38;;;;;;;30.20;12.35;;;22.10;64.40;;;;;;4887710;28;88247;-88
2023/05/23 10:52:06;;;;;;;29.73;12.57;;;22.00;64.30;;;;;;4904006;28;89421;-86
2023/05/23 10:54:36;;;;;;;28.70;13.32;;;22.00;64.10;;;;;;4889017;28;88160;-85
2023/05/23 10:57:04;;;;;;;26.98;13.35;;;22.00;64.30;;;;;;4887825;28;87750;-87
2023/05/23 10:59:31;;;;;;;26.08;12.55;;;22.00;64.60;;;;;;4887851;28;88701;-89
2023/05/23 11:01:58;;;;;;;23.58;12.57;;;22.00;65.00;;;;;;4888308;28;89001;-86
2023/05/23 11:04:26;;;;;;;25.90;12.38;;;22.00;65.40;;;;;;4886243;28;87590;-86
2023/05/23 11:06:53;;;;;;;27.48;13.77;;;22.00;64.90;;;;;;4889580;28;88254;-85
2023/05/23 11:09:20;;;;;;;28.42;13.02;;;22.10;64.20;;;;;;4888165;28;88133;-92
2023/05/23 11:12:04;;;;;;;28.98;13.23;;;22.10;64.20;;;;;;4888600;28;88349;-89
2023/05/23 11:14:36;;;;;;;25.52;12.18;;;22.10;64.40;;;;;;4886835;28;87741;-85
2023/05/23 11:17:11;;;;;;;21.17;12.07;;;22.10;64.40;;;;;;4887407;28;86763;-86
2023/05/23 11:19:38;;;;;;;25.98;11.77;;;22.10;64.50;;;;;;4902241;28;89673;-87
2023/05/23 11:22:07;;;;;;;23.70;11.57;;;22.10;64.50;;;;;;4887628;28;87956;-87
2023/05/23 11:24:50;;;;;;;20.08;11.07;;;22.00;64.50;;;;;;4887410;28;88709;-87
2023/05/23 11:27:33;;;;;;;23.45;11.10;;;22.10;64.70;;;;;;4885958;28;88759;-90
2023/05/23 11:30:19;;;;;;;19.83;10.93;;;22.00;64.40;;;;;;4901474;28;90016;-89
2023/05/23 11:32:54;;;;;;;18.52;11.07;;;22.00;65.30;;;;;;4889283;28;88432;-89
2023/05/23 11:35:20;;;;;;;20.48;11.00;;;22.00;64.60;;;;;;4885233;28;88248;-90
2023/05/23 11:37:46;;;;;;;23.48;11.35;;;22.00;64.50;;;;;;4887618;28;87469;-85
2023/05/23 11:40:27;;;;;;;23.90;11.95;;;22.10;64.20;;;;;;4888521;28;87916;-87
2023/05/23 11:42:53;;;;;;;27.48;12.65;;;22.10;64.20;;;;;;4888942;28;87426;-84
2023/05/23 11:45:19;;;;;;;20.63;10.68;;;22.10;64.00;;;;;;4886383;28;88159;-83
2023/05/23 11:47:45;;;;;;;26.77;12.93;;;22.20;64.00;;;;;;4889914;28;87406;-90
2023/05/23 11:50:11;;;;;;;18.10;10.73;;;22.20;64.00;;;;;;4889863;28;89593;-86
2023/05/23 11:52:36;;;;;;;20.05;11.07;;;22.10;63.70;;;;;;4889720;28;88471;-85
2023/05/23 11:55:02;;;;;;;20.55;11.35;;;22.20;63.80;;;;;;4891582;28;88068;-88
2023/05/23 11:57:28;;;;;;;20.60;10.98;;;22.10;63.70;;;;;;4889974;28;87729;-85
2023/05/23 11:59:54;;;;;;;20.63;10.52;;;22.20;63.50;;;;;;4889811;28;88764;-85
2023/05/23 12:02:21;;;;;;;19.58;11.05;;;22.20;63.40;;;;;;4892293;28;87237;-84
2023/05/23 12:04:48;;;;;;;20.38;11.43;;;22.20;63.60;;;;;;4890112;28;88141;-87
2023/05/23 12:07:13;;;;;;;20.05;11.25;;;22.20;63.60;;;;;;4891326;28;86583;-88
2023/05/23 12:09:43;;;;;;;25.13;11.52;;;22.20;63.70;;;;;;4893800;28;87992;-88
2023/05/23 12:12:09;;;;;;;22.75;11.18;;;22.30;63.50;;;;;;4883777;28;90621;-85
2023/05/23 12:14:37;;;;;;;20.35;11.43;;;22.30;63.70;;;;;;4863039;28;88446;-88
2023/05/23 12:17:03;;;;;;;16.60;10.10;;;22.30;63.40;;;;;;4864033;28;88060;-85
2023/05/23 12:19:29;;;;;;;20.08;10.75;;;22.30;63.40;;;;;;4864715;28;87886;-87
2023/05/23 12:21:55;;;;;;;19.70;10.10;;;22.30;63.50;;;;;;4866104;28;87955;-83
2023/05/23 12:24:22;;;;;;;20.55;10.65;;;22.30;63.60;;;;;;4864939;28;87458;-86
2023/05/23 12:26:57;;;;;;;18.77;9.70;;;22.30;63.60;;;;;;4863456;28;89779;-83
2023/05/23 12:29:31;;;;;;;22.23;11.52;;;22.30;63.60;;;;;;4865520;28;88169;-83
2023/05/23 12:31:58;;;;;;;22.70;10.85;;;22.30;63.70;;;;;;4866989;28;87859;-88
2023/05/23 12:34:23;;;;;;;19.20;10.75;;;22.30;63.60;;;;;;4880103;28;88157;-83